Lethbridge County Airport
CYQL : now visible

Airfield :











YOU CAN JOIN US ON...

 
LOGIN :

Register | Disclaimer

   EN    FR    IT 

 









Legend :    VFR   Marginal VFR   IFR   Intensive IFR   Very Intensive IFR
Visi :
Ceiling :
>= 8 km
>= 3000ft
5 to 8 km
1000 to 3000 ft
1500m to 5 km
500 to 1000 ft
800 to 1500m
200 to 500 ft
< 800m
< 200 ft
Symbols :   Thunderstorms  Fog  Heavy snow  Heavy precipitations  Wind > 20 kt






- Airport Elevation : 3047 ft
- IATA code : YQL


CYQL - Lethbridge County

CURRENT METAR :
  • 301000Z AUTO 27019G25KT 1SM -SN VV013 M11/M13 A3009 RMK SLP267

EXPIRED METARs :
  • 300919Z AUTO 25016KT 1 3/4SM -SN OVC023 M11/M13 A3008 RMK SLP256
  • 300902Z AUTO 26012KT 2 1/2SM -SN BKN029 OVC044 M11/M14 A3008 RMK SLP256
  • 300812Z AUTO 25011KT 9SM -SN BKN045 OVC071 M11/M16 A3009 RMK SLP259

TAF AMD TAF CYQL
Valid from the 30 at 09:00 until the 30 at 18:00 UTC


300925Z 3009/3018 27012KT 1SM -SN OVC015
TEMPO 3009/3015 P6SM -SN OVC030
FM301500 25010KT P6SM OVC040
TEMPO 3015/3018 5SM -SN OVC020 RMK FCST BASED ON AUTO OBS. NXT FCST BY 301200Z
CZEG FIR / North America



MET'MAP, your aeronautical weather chart ! - Copyright ORBIFLY December 2007 - Disclaimer

ORBIFLY MET'MAP TEAM :

Programming & Development : Alexandra Zaïnal
Original concept : Baudouin d'Aumeries
Technical & hardware support : Manuel Goepfert
Assistance : Marc-Olivier Méhu




SOURCES & CREDITS :

   NOAA       Earth
Advisory